Blaine, OH (43909)

2:50 AM EST on December 09, 2016 (GMT -0500)
Crawford Heights | | Change Station

Elev 1109 ft 40.09 °N, 80.75 °W | Updated 14 seconds ago

Overcast
Overcast
20.4 °F
Feels Like 13 °F
N
5.0
Wind Variable Wind from WSW

Today
High -- | Low -- °F
--% Chance of Precip.
Yesterday
High -- | Low -- °F
Precip. -- in
Pressure 30.30 in
Visibility 3.0 miles
Clouds Mostly Cloudy 1400 ft
Mostly Cloudy 2400 ft
Overcast 3300 ft
Windchill 13 °F
Dew Point 17 °F
Humidity 88%
Rainfall 0.00 in
Snow Depth Not available.
7:33 AM 4:57 PM
Waxing Gibbous, 71% visible
SPECI KHLG 090738Z AUTO 26007KT 3SM -SN BKN014 BKN024 OVC033 M06/M09 A3030 RMK AO2 P0000 T10611089
Pressure 30.30 in
Visibility 3.0 miles
Clouds Mostly Cloudy 1400 ft
Mostly Cloudy 2400 ft
Overcast 3300 ft
Windchill 13 °F
Dew Point 17 °F
Humidity 88%
Rainfall 0.00 in
Snow Depth Not available.
7:33 AM 4:57 PM
Waxing Gibbous, 71% visible
SPECI KHLG 090738Z AUTO 26007KT 3SM -SN BKN014 BKN024 OVC033 M06/M09 A3030 RMK AO2 P0000 T10611089

10-Day Weather Forecast

Almanac

Astronomy

Dec. 09, 2016 Rise Set
Actual Time
Civil Twilight
Nautical Twilight
Astronomical Twilight
Moon
Length of Visible Light
Length of Day
Tomorrow will be .
, % of the Moon is Illuminated

Today's Extremes

State Highs State Lows

Community

WunderPhotos

Upload Photos

1,956,374 photos uploaded!

WunderBlog® & News

Nearby

Air Quality

  Air Quality AQ Index Pollutant
Not available.

Snow Depth

Station Depth Elevation

Earthquake Activity

City Distance Mag. Time & Date
Minimum magnitude displayed is 2.5.

Coastal Water Temperatures

Place Temperature

Stations

Nearby Weather Stations

Station Location Temp. Windchill Dew Point Humidity Wind Precip. Elev Updated Type
                   

Watches & Warnings

There are currently no watches in effect.